createdAt,value
2018-03-04T00:00:38.314Z,0
2018-03-04T00:01:39.088Z,0
2018-03-04T00:02:39.865Z,0
2018-03-04T00:03:40.654Z,0
2018-03-04T00:04:41.403Z,0
2018-03-04T00:05:42.153Z,0
2018-03-04T00:06:42.866Z,0
2018-03-04T00:07:43.587Z,0
2018-03-04T00:08:44.295Z,0
2018-03-04T00:09:45.054Z,0
2018-03-04T00:10:45.856Z,0
2018-03-04T00:11:46.646Z,0
2018-03-04T00:12:47.390Z,0
2018-03-04T00:13:48.103Z,0
2018-03-04T00:14:48.811Z,0
2018-03-04T00:15:49.534Z,0
2018-03-04T00:16:50.279Z,0
2018-03-04T00:17:51.036Z,0
2018-03-04T00:18:51.730Z,0
2018-03-04T00:19:52.444Z,0
2018-03-04T00:20:53.160Z,0
2018-03-04T00:21:53.865Z,0
2018-03-04T00:22:54.645Z,0
2018-03-04T00:23:55.405Z,0
2018-03-04T00:24:56.161Z,0
2018-03-04T00:25:56.933Z,0
2018-03-04T00:26:57.644Z,0
2018-03-04T00:27:58.372Z,0
2018-03-04T00:28:59.139Z,0
2018-03-04T00:29:59.841Z,0
2018-03-04T00:31:00.555Z,0
2018-03-04T00:32:01.308Z,0
2018-03-04T00:33:02.007Z,0
2018-03-04T00:34:02.724Z,0
2018-03-04T00:35:03.501Z,0
2018-03-04T00:36:04.270Z,0
2018-03-04T00:37:04.994Z,0
2018-03-04T00:38:05.731Z,0
2018-03-04T00:39:06.479Z,0
2018-03-04T00:40:07.193Z,0
2018-03-04T00:41:07.901Z,0
2018-03-04T00:42:08.620Z,0
2018-03-04T00:43:09.370Z,0
2018-03-04T00:44:10.040Z,0
2018-03-04T00:45:11.283Z,0
2018-03-04T00:46:11.958Z,0
2018-03-04T00:47:12.760Z,0
2018-03-04T00:48:13.472Z,0
2018-03-04T00:49:14.195Z,0
2018-03-04T00:50:15.064Z,0
2018-03-04T00:51:15.819Z,0
2018-03-04T00:52:16.575Z,0
2018-03-04T00:53:17.342Z,0
2018-03-04T00:54:18.050Z,0
2018-03-04T00:55:18.773Z,0
2018-03-04T00:56:19.503Z,0
2018-03-04T00:57:20.294Z,0
2018-03-04T00:58:21.083Z,0
2018-03-04T00:59:21.807Z,0
2018-03-04T01:00:23.996Z,0
2018-03-04T01:02:27.285Z,0
2018-03-04T01:03:28.116Z,0
2018-03-04T01:04:28.839Z,0
2018-03-04T01:05:29.657Z,0
2018-03-04T01:06:30.344Z,0
2018-03-04T01:07:31.085Z,0
2018-03-04T01:08:31.805Z,0
2018-03-04T01:09:32.630Z,0
2018-03-04T01:10:33.444Z,0
2018-03-04T01:11:34.174Z,0
2018-03-04T01:12:34.966Z,0
2018-03-04T01:13:35.816Z,0
2018-03-04T01:14:36.672Z,0
2018-03-04T01:15:37.586Z,0
2018-03-04T01:16:38.481Z,0
2018-03-04T01:17:39.330Z,0
2018-03-04T01:18:40.151Z,0
2018-03-04T01:19:40.869Z,0
2018-03-04T01:20:41.680Z,0
2018-03-04T01:21:42.417Z,0
2018-03-04T01:22:43.117Z,0
2018-03-04T01:23:43.953Z,0
2018-03-04T01:24:44.663Z,0
2018-03-04T01:25:45.383Z,0
2018-03-04T01:26:46.179Z,0
2018-03-04T01:27:46.936Z,0
2018-03-04T01:28:47.759Z,0
2018-03-04T01:29:48.510Z,0
2018-03-04T01:30:49.236Z,0
2018-03-04T01:31:49.954Z,0
2018-03-04T01:32:50.680Z,0
2018-03-04T01:33:51.448Z,0
2018-03-04T01:34:52.171Z,0
2018-03-04T01:35:52.913Z,0
2018-03-04T01:36:53.656Z,0
2018-03-04T01:37:54.434Z,0
2018-03-04T01:38:55.157Z,0
2018-03-04T01:39:55.867Z,0
2018-03-04T01:40:56.583Z,0
2018-03-04T01:41:57.304Z,0
2018-03-04T01:42:58.020Z,0
2018-03-04T01:43:58.801Z,0
2018-03-04T01:44:59.521Z,0
2018-03-04T01:46:00.244Z,0
2018-03-04T01:47:00.948Z,0
2018-03-04T01:48:01.726Z,0
2018-03-04T01:49:04.073Z,0
2018-03-04T01:50:04.954Z,0
2018-03-04T01:51:05.668Z,0
2018-03-04T01:52:06.456Z,0
2018-03-04T01:53:07.246Z,0
2018-03-04T01:54:07.966Z,0
2018-03-04T01:55:08.759Z,0
2018-03-04T01:56:09.471Z,0
2018-03-04T01:57:10.187Z,0
2018-03-04T01:58:10.905Z,0
2018-03-04T01:59:11.653Z,0
2018-03-04T02:00:12.334Z,0
2018-03-04T02:01:13.039Z,0
2018-03-04T02:02:13.764Z,0
2018-03-04T02:03:14.475Z,0
2018-03-04T02:04:15.259Z,0
2018-03-04T02:05:16.013Z,0
2018-03-04T02:06:16.734Z,0
2018-03-04T02:07:17.464Z,0
2018-03-04T02:08:18.244Z,0
2018-03-04T02:09:18.961Z,0
2018-03-04T02:10:19.704Z,0
2018-03-04T02:11:20.416Z,0
2018-03-04T02:12:21.194Z,0
2018-03-04T02:13:21.902Z,0
2018-03-04T02:14:22.664Z,0
2018-03-04T02:15:23.457Z,0
2018-03-04T02:16:24.225Z,0
2018-03-04T02:17:24.938Z,0
2018-03-04T02:18:25.653Z,0
2018-03-04T02:19:26.481Z,0
2018-03-04T02:20:27.204Z,0
2018-03-04T02:21:27.908Z,0
2018-03-04T02:22:28.615Z,0
2018-03-04T02:23:29.334Z,0
2018-03-04T02:24:30.038Z,0
2018-03-04T02:25:30.825Z,0
2018-03-04T02:26:31.545Z,0
2018-03-04T02:27:32.301Z,0
2018-03-04T02:28:33.075Z,0
2018-03-04T02:29:33.873Z,0
2018-03-04T02:30:34.594Z,0
2018-03-04T02:31:35.304Z,0
2018-03-04T02:32:36.075Z,0
2018-03-04T02:33:36.793Z,0
2018-03-04T02:34:37.507Z,0
2018-03-04T02:35:38.227Z,0
2018-03-04T02:36:38.967Z,0
2018-03-04T02:37:39.806Z,0
2018-03-04T02:38:40.530Z,0
2018-03-04T02:39:41.251Z,0
2018-03-04T02:40:41.967Z,0
2018-03-04T02:41:42.685Z,0
2018-03-04T02:42:43.428Z,0
2018-03-04T02:43:44.138Z,0
2018-03-04T02:44:44.857Z,0
2018-03-04T02:45:45.576Z,0
2018-03-04T02:46:46.384Z,0
2018-03-04T02:47:47.157Z,0
2018-03-04T02:48:47.912Z,0
2018-03-04T02:49:48.626Z,0
2018-03-04T02:50:49.328Z,0
2018-03-04T02:51:50.049Z,0
2018-03-04T02:52:50.827Z,0
2018-03-04T02:53:51.676Z,0
2018-03-04T02:54:52.389Z,0
2018-03-04T02:55:53.097Z,0
2018-03-04T02:56:53.812Z,0
2018-03-04T02:57:54.542Z,0
2018-03-04T02:58:55.242Z,0
2018-03-04T02:59:56.000Z,0
2018-03-04T03:00:56.731Z,0
2018-03-04T03:01:57.449Z,0
2018-03-04T03:02:58.181Z,0
2018-03-04T03:03:58.899Z,0
2018-03-04T03:04:59.732Z,0
2018-03-04T03:06:00.508Z,0
2018-03-04T03:07:01.306Z,0
2018-03-04T03:08:02.027Z,0
2018-03-04T03:09:02.750Z,0
2018-03-04T03:10:03.478Z,0
2018-03-04T03:11:04.236Z,0
2018-03-04T03:12:04.998Z,0
2018-03-04T03:13:05.755Z,0
2018-03-04T03:14:06.516Z,0
2018-03-04T03:15:07.268Z,0
2018-03-04T03:16:07.990Z,0
2018-03-04T03:17:08.774Z,0
2018-03-04T03:18:09.497Z,0
2018-03-04T03:19:10.280Z,0
2018-03-04T03:20:10.950Z,0
2018-03-04T03:21:11.691Z,0
2018-03-04T03:22:12.409Z,0
2018-03-04T03:23:13.198Z,0
2018-03-04T03:24:13.905Z,0
2018-03-04T03:25:14.638Z,0
2018-03-04T03:26:15.440Z,0
2018-03-04T03:27:16.151Z,0
2018-03-04T03:28:16.870Z,0
2018-03-04T03:29:17.596Z,0
2018-03-04T03:30:18.321Z,0
2018-03-04T03:31:19.041Z,0
2018-03-04T03:32:19.753Z,0
2018-03-04T03:33:20.517Z,0
2018-03-04T03:34:21.244Z,0
2018-03-04T03:35:22.027Z,0
2018-03-04T03:36:22.752Z,0
2018-03-04T03:37:23.523Z,0
2018-03-04T03:38:24.290Z,0
2018-03-04T03:39:25.103Z,0
2018-03-04T03:40:25.882Z,0
2018-03-04T03:41:26.637Z,0
2018-03-04T03:42:27.348Z,0
2018-03-04T03:43:28.122Z,0
2018-03-04T03:44:28.840Z,0
2018-03-04T03:45:29.547Z,0
2018-03-04T03:46:30.270Z,0
2018-03-04T03:47:31.022Z,0
2018-03-04T03:48:31.756Z,0
2018-03-04T03:49:32.469Z,0
2018-03-04T03:50:33.195Z,0
2018-03-04T03:51:33.919Z,0
2018-03-04T03:52:34.643Z,0
2018-03-04T03:53:35.471Z,0
2018-03-04T03:54:36.187Z,0
2018-03-04T03:55:36.907Z,0
2018-03-04T03:56:37.692Z,0
2018-03-04T03:57:38.408Z,0
2018-03-04T03:58:39.256Z,0
2018-03-04T03:59:39.964Z,0
2018-03-04T04:00:40.687Z,0
2018-03-04T04:01:41.415Z,0
2018-03-04T04:02:42.134Z,0
2018-03-04T04:03:42.907Z,0
2018-03-04T04:04:43.685Z,0
2018-03-04T04:05:44.411Z,0
2018-03-04T04:06:45.123Z,0
2018-03-04T04:07:45.854Z,0
2018-03-04T04:08:46.587Z,0
2018-03-04T04:09:47.395Z,0
2018-03-04T04:10:48.178Z,0
2018-03-04T04:11:48.858Z,0
2018-03-04T04:12:49.663Z,0
2018-03-04T04:13:50.381Z,0
2018-03-04T04:14:51.112Z,0
2018-03-04T04:15:51.882Z,0
2018-03-04T04:16:52.592Z,0
2018-03-04T04:17:53.319Z,0
2018-03-04T04:18:54.119Z,0
2018-03-04T04:19:54.883Z,0
2018-03-04T04:20:55.659Z,0
2018-03-04T04:21:56.364Z,0
2018-03-04T04:22:57.095Z,0
2018-03-04T04:23:57.823Z,0
2018-03-04T04:24:58.593Z,0
2018-03-04T04:25:59.322Z,0
2018-03-04T04:27:00.107Z,0
2018-03-04T04:28:00.892Z,0
2018-03-04T04:29:01.606Z,0
2018-03-04T04:30:02.398Z,0
2018-03-04T04:31:03.120Z,0
2018-03-04T04:32:03.915Z,0
2018-03-04T04:33:04.630Z,0
2018-03-04T04:34:05.364Z,0
2018-03-04T04:35:06.105Z,0
2018-03-04T04:36:06.824Z,0
2018-03-04T04:37:07.543Z,0
2018-03-04T04:38:08.307Z,0
2018-03-04T04:39:09.031Z,0
2018-03-04T04:40:09.804Z,0
2018-03-04T04:41:10.574Z,0
2018-03-04T04:42:11.314Z,0
2018-03-04T04:43:12.114Z,0
2018-03-04T04:44:12.836Z,0
2018-03-04T04:45:13.554Z,0
2018-03-04T04:46:14.272Z,0
2018-03-04T04:47:15.035Z,0
2018-03-04T04:48:15.745Z,0
2018-03-04T04:49:16.468Z,0
2018-03-04T04:50:17.182Z,0
2018-03-04T04:51:17.936Z,0
2018-03-04T04:52:18.646Z,0
2018-03-04T04:53:19.377Z,0
2018-03-04T04:54:20.143Z,0
2018-03-04T04:55:20.869Z,0
2018-03-04T04:56:21.677Z,0
2018-03-04T04:57:22.478Z,0
2018-03-04T04:58:23.189Z,0
2018-03-04T04:59:23.907Z,0
2018-03-04T05:00:24.628Z,0
2018-03-04T05:01:25.406Z,0
2018-03-04T05:02:26.064Z,0
2018-03-04T05:03:26.791Z,0
2018-03-04T05:04:27.618Z,0
2018-03-04T05:05:28.336Z,0
2018-03-04T05:06:29.069Z,0
2018-03-04T05:07:29.799Z,0
2018-03-04T05:08:30.555Z,0
2018-03-04T05:09:31.373Z,0
2018-03-04T05:10:32.154Z,0
2018-03-04T05:11:32.904Z,0
2018-03-04T05:12:33.622Z,0
2018-03-04T05:13:34.340Z,0
2018-03-04T05:14:35.067Z,0
2018-03-04T05:15:35.806Z,0
2018-03-04T05:16:36.525Z,0
2018-03-04T05:17:37.319Z,0
2018-03-04T05:18:38.016Z,0
2018-03-04T05:19:38.727Z,0
2018-03-04T05:20:39.457Z,0
2018-03-04T05:21:40.173Z,0
2018-03-04T05:22:40.890Z,0
2018-03-04T05:23:41.603Z,0
2018-03-04T05:24:42.375Z,0
2018-03-04T05:25:43.099Z,0
2018-03-04T05:26:43.876Z,0
2018-03-04T05:27:44.598Z,0
2018-03-04T05:28:45.403Z,0
2018-03-04T05:29:46.134Z,0
2018-03-04T05:30:46.865Z,0
2018-03-04T05:31:47.595Z,0
2018-03-04T05:32:48.320Z,0
2018-03-04T05:33:49.115Z,0
2018-03-04T05:34:49.843Z,0
2018-03-04T05:35:50.562Z,0
2018-03-04T05:36:51.321Z,0
2018-03-04T05:37:52.048Z,0
2018-03-04T05:38:52.817Z,0
2018-03-04T05:39:53.537Z,0
2018-03-04T05:40:54.296Z,0
2018-03-04T05:41:55.011Z,0
2018-03-04T05:42:55.734Z,0
2018-03-04T05:43:56.476Z,0
2018-03-04T05:44:57.207Z,0
2018-03-04T05:45:57.915Z,0
2018-03-04T05:46:58.645Z,0
2018-03-04T05:47:59.423Z,0
2018-03-04T05:49:00.146Z,0
2018-03-04T05:50:00.913Z,0
2018-03-04T05:51:01.623Z,0
2018-03-04T05:52:02.345Z,0
2018-03-04T05:53:03.064Z,0
2018-03-04T05:54:03.841Z,0
2018-03-04T05:55:04.546Z,5
2018-03-04T05:56:05.319Z,5
2018-03-04T05:57:06.084Z,5
2018-03-04T05:58:06.863Z,5
2018-03-04T05:59:07.660Z,5
2018-03-04T06:00:08.385Z,5
2018-03-04T06:01:09.119Z,5
2018-03-04T06:02:09.812Z,5
2018-03-04T06:03:10.527Z,11
2018-03-04T06:04:11.258Z,11
2018-03-04T06:05:11.980Z,11
2018-03-04T06:06:12.705Z,11
2018-03-04T06:07:13.469Z,11
2018-03-04T06:08:14.195Z,16
2018-03-04T06:09:14.913Z,16
2018-03-04T06:10:15.629Z,16
2018-03-04T06:11:16.531Z,16
2018-03-04T06:12:17.278Z,16
2018-03-04T06:13:17.968Z,16
2018-03-04T06:14:18.683Z,16
2018-03-04T06:15:19.433Z,16
2018-03-04T06:16:20.155Z,22
2018-03-04T06:17:20.871Z,22
2018-03-04T06:18:21.683Z,22
2018-03-04T06:19:22.409Z,22
2018-03-04T06:20:23.126Z,22
2018-03-04T06:21:23.909Z,22
2018-03-04T06:22:24.695Z,22
2018-03-04T06:23:25.422Z,22
2018-03-04T06:24:26.153Z,28
2018-03-04T06:25:26.894Z,28
2018-03-04T06:26:27.646Z,28
2018-03-04T06:27:28.368Z,33
2018-03-04T06:28:29.141Z,33
2018-03-04T06:29:29.924Z,33
2018-03-04T06:30:30.659Z,33
2018-03-04T06:31:31.383Z,33
2018-03-04T06:32:32.112Z,39
2018-03-04T06:33:32.835Z,39
2018-03-04T06:34:33.636Z,39
2018-03-04T06:35:34.346Z,45
2018-03-04T06:36:35.072Z,45
2018-03-04T06:37:35.800Z,50
2018-03-04T06:38:36.536Z,50
2018-03-04T06:39:37.245Z,56
2018-03-04T06:40:37.972Z,56
2018-03-04T06:41:38.708Z,61
2018-03-04T06:42:39.392Z,61
2018-03-04T06:43:40.116Z,61
2018-03-04T06:44:40.836Z,67
2018-03-04T06:45:41.605Z,67
2018-03-04T06:46:42.344Z,67
2018-03-04T06:47:43.073Z,67
2018-03-04T06:48:43.821Z,67
2018-03-04T06:49:44.558Z,73
2018-03-04T06:50:45.279Z,73
2018-03-04T06:51:46.000Z,78
2018-03-04T06:52:46.742Z,78
2018-03-04T06:53:47.440Z,84
2018-03-04T06:54:48.152Z,84
2018-03-04T06:55:48.857Z,84
2018-03-04T06:56:49.630Z,90
2018-03-04T06:57:50.346Z,101
2018-03-04T06:58:51.076Z,106
2018-03-04T06:59:51.847Z,112
2018-03-04T07:00:52.560Z,112
2018-03-04T07:01:53.276Z,118
2018-03-04T07:02:54.055Z,118
2018-03-04T07:03:55.246Z,112
2018-03-04T07:04:56.381Z,112
2018-03-04T07:05:57.000Z,106
2018-03-04T07:06:58.030Z,112
2018-03-04T07:07:58.884Z,112
2018-03-04T07:08:59.860Z,118
2018-03-04T07:10:00.615Z,123
2018-03-04T07:11:01.636Z,129
2018-03-04T07:12:02.575Z,129
2018-03-04T07:13:03.621Z,129
2018-03-04T07:14:04.273Z,129
2018-03-04T07:15:04.990Z,135
2018-03-04T07:16:05.773Z,135
2018-03-04T07:17:06.490Z,135
2018-03-04T07:18:07.210Z,129
2018-03-04T07:19:07.946Z,123
2018-03-04T07:20:08.694Z,118
2018-03-04T07:21:09.417Z,118
2018-03-04T07:22:10.134Z,112
2018-03-04T07:23:10.863Z,106
2018-03-04T07:24:11.592Z,106
2018-03-04T07:25:12.315Z,101
2018-03-04T07:26:13.035Z,101
2018-03-04T07:27:13.780Z,101
2018-03-04T07:28:14.473Z,101
2018-03-04T07:29:15.253Z,106
2018-03-04T07:30:16.017Z,112
2018-03-04T07:31:16.767Z,118
2018-03-04T07:32:17.513Z,118
2018-03-04T07:33:18.227Z,118
2018-03-04T07:34:18.934Z,112
2018-03-04T07:35:19.652Z,106
2018-03-04T07:36:20.361Z,106
2018-03-04T07:37:21.093Z,106
2018-03-04T07:38:21.814Z,112
2018-03-04T07:39:22.596Z,118
2018-03-04T07:40:23.311Z,118
2018-03-04T07:41:24.070Z,118
2018-03-04T07:42:24.814Z,112
2018-03-04T07:43:25.552Z,112
2018-03-04T07:44:26.313Z,118
2018-03-04T07:45:27.023Z,129
2018-03-04T07:46:27.792Z,129
2018-03-04T07:47:28.549Z,135
2018-03-04T07:48:29.318Z,146
2018-03-04T07:49:30.095Z,146
2018-03-04T07:50:30.888Z,151
2018-03-04T07:51:31.645Z,151
2018-03-04T07:52:32.385Z,163
2018-03-04T07:53:33.127Z,180
2018-03-04T07:54:33.844Z,185
2018-03-04T07:55:34.567Z,202
2018-03-04T07:56:35.293Z,213
2018-03-04T07:57:36.049Z,230
2018-03-04T07:58:36.761Z,241
2018-03-04T07:59:37.497Z,253
2018-03-04T08:00:38.216Z,264
2018-03-04T08:01:38.930Z,270
2018-03-04T08:02:39.662Z,270
2018-03-04T08:03:40.381Z,281
2018-03-04T08:04:41.118Z,292
2018-03-04T08:05:41.850Z,298
2018-03-04T08:06:42.584Z,309
2018-03-04T08:07:43.315Z,309
2018-03-04T08:08:44.032Z,309
2018-03-04T08:09:44.765Z,309
2018-03-04T08:10:45.480Z,315
2018-03-04T08:11:46.192Z,320
2018-03-04T08:12:46.918Z,320
2018-03-04T08:13:47.721Z,326
2018-03-04T08:14:48.463Z,326
2018-03-04T08:15:49.172Z,326
2018-03-04T08:16:49.901Z,320
2018-03-04T08:17:50.610Z,320
2018-03-04T08:18:51.335Z,315
2018-03-04T08:19:52.055Z,320
2018-03-04T08:20:52.799Z,315
2018-03-04T08:21:53.512Z,320
2018-03-04T08:22:54.291Z,326
2018-03-04T08:23:55.016Z,337
2018-03-04T08:24:55.731Z,348
2018-03-04T08:25:56.441Z,365
2018-03-04T08:26:57.163Z,371
2018-03-04T08:27:57.901Z,382
2018-03-04T08:28:58.644Z,388
2018-03-04T08:29:59.375Z,388
2018-03-04T08:31:00.153Z,393
2018-03-04T08:32:00.873Z,405
2018-03-04T08:33:01.610Z,421
2018-03-04T08:34:02.358Z,444
2018-03-04T08:35:03.097Z,450
2018-03-04T08:36:03.820Z,466
2018-03-04T08:37:04.558Z,489
2018-03-04T08:38:05.285Z,511
2018-03-04T08:39:06.063Z,523
2018-03-04T08:40:06.800Z,556
2018-03-04T08:41:07.517Z,556
2018-03-04T08:42:08.254Z,568
2018-03-04T08:43:08.985Z,573
2018-03-04T08:44:09.835Z,568
2018-03-04T08:45:10.562Z,573
2018-03-04T08:46:11.292Z,579
2018-03-04T08:47:12.030Z,579
2018-03-04T08:48:12.760Z,590
2018-03-04T08:49:13.473Z,596
2018-03-04T08:50:14.267Z,607
2018-03-04T08:51:15.003Z,613
2018-03-04T08:52:15.739Z,613
2018-03-04T08:53:16.467Z,618
2018-03-04T08:54:17.193Z,613
2018-03-04T08:55:17.979Z,596
2018-03-04T08:56:18.723Z,568
2018-03-04T08:57:19.433Z,556
2018-03-04T08:58:20.152Z,556
2018-03-04T08:59:20.887Z,568
2018-03-04T09:00:21.615Z,568
2018-03-04T09:01:22.394Z,551
2018-03-04T09:02:23.114Z,545
2018-03-04T09:03:23.856Z,545
2018-03-04T09:04:24.600Z,562
2018-03-04T09:05:25.325Z,568
2018-03-04T09:06:26.089Z,579
2018-03-04T09:07:26.888Z,585
2018-03-04T09:08:27.624Z,641
2018-03-04T09:09:28.392Z,663
2018-03-04T09:10:29.110Z,646
2018-03-04T09:11:29.846Z,731
2018-03-04T09:12:30.643Z,708
2018-03-04T09:13:31.426Z,573
2018-03-04T09:14:32.145Z,506
2018-03-04T09:15:32.962Z,472
2018-03-04T09:16:33.690Z,433
2018-03-04T09:17:34.426Z,427
2018-03-04T09:18:35.149Z,421
2018-03-04T09:19:35.940Z,399
2018-03-04T09:20:36.760Z,410
2018-03-04T09:21:37.532Z,466
2018-03-04T09:22:38.265Z,495
2018-03-04T09:23:38.998Z,461
2018-03-04T09:24:39.788Z,466
2018-03-04T09:25:40.516Z,511
2018-03-04T09:26:41.225Z,551
2018-03-04T09:27:41.972Z,562
2018-03-04T09:28:42.728Z,568
2018-03-04T09:29:43.455Z,540
2018-03-04T09:30:44.324Z,511
2018-03-04T09:31:45.164Z,478
2018-03-04T09:32:45.832Z,523
2018-03-04T09:33:46.545Z,601
2018-03-04T09:34:47.282Z,663
2018-03-04T09:35:48.076Z,725
2018-03-04T09:36:48.798Z,798
2018-03-04T09:37:49.516Z,905
2018-03-04T09:38:50.317Z,894
2018-03-04T09:39:51.041Z,855
2018-03-04T09:40:51.815Z,838
2018-03-04T09:41:52.574Z,838
2018-03-04T09:42:53.306Z,826
2018-03-04T09:43:54.095Z,832
2018-03-04T09:44:54.834Z,888
2018-03-04T09:45:55.639Z,911
2018-03-04T09:46:56.441Z,793
2018-03-04T09:47:57.217Z,708
2018-03-04T09:48:58.008Z,675
2018-03-04T09:49:58.742Z,658
2018-03-04T09:50:59.465Z,641
2018-03-04T09:52:00.197Z,630
2018-03-04T09:53:00.972Z,624
2018-03-04T09:54:01.710Z,607
2018-03-04T09:55:02.437Z,618
2018-03-04T09:56:03.166Z,635
2018-03-04T09:57:03.896Z,646
2018-03-04T09:58:04.678Z,658
2018-03-04T09:59:05.490Z,669
2018-03-04T10:00:06.214Z,663
2018-03-04T10:01:06.942Z,658
2018-03-04T10:02:07.707Z,658
2018-03-04T10:03:08.512Z,658
2018-03-04T10:04:09.243Z,658
2018-03-04T10:05:09.978Z,658
2018-03-04T10:06:10.705Z,658
2018-03-04T10:07:11.534Z,663
2018-03-04T10:08:12.275Z,658
2018-03-04T10:09:12.991Z,646
2018-03-04T10:10:13.713Z,635
2018-03-04T10:11:14.433Z,624
2018-03-04T10:12:15.173Z,618
2018-03-04T10:13:15.977Z,613
2018-03-04T10:14:16.690Z,601
2018-03-04T10:15:17.425Z,596
2018-03-04T10:16:18.166Z,585
2018-03-04T10:17:18.915Z,573
2018-03-04T10:18:19.696Z,562
2018-03-04T10:19:20.414Z,551
2018-03-04T10:20:21.149Z,545
2018-03-04T10:21:21.872Z,545
2018-03-04T10:22:22.608Z,545
2018-03-04T10:23:23.333Z,545
2018-03-04T10:24:24.066Z,540
2018-03-04T10:25:24.788Z,540
2018-03-04T10:26:25.521Z,534
2018-03-04T10:27:26.262Z,528
2018-03-04T10:28:27.056Z,534
2018-03-04T10:29:27.788Z,545
2018-03-04T10:30:28.517Z,562
2018-03-04T10:31:29.255Z,579
2018-03-04T10:32:29.962Z,590
2018-03-04T10:33:30.689Z,601
2018-03-04T10:34:31.466Z,618
2018-03-04T10:35:32.206Z,641
2018-03-04T10:36:32.945Z,663
2018-03-04T10:37:33.741Z,680
2018-03-04T10:38:34.522Z,691
2018-03-04T10:39:35.243Z,708
2018-03-04T10:40:35.973Z,731
2018-03-04T10:41:36.721Z,759
2018-03-04T10:42:37.503Z,793
2018-03-04T10:43:38.224Z,815
2018-03-04T10:44:38.949Z,838
2018-03-04T10:45:39.712Z,894
2018-03-04T10:46:40.444Z,1158
2018-03-04T10:47:41.177Z,1085
2018-03-04T10:48:41.934Z,1175
2018-03-04T10:49:42.737Z,1293
2018-03-04T10:50:43.549Z,1383
2018-03-04T10:51:44.331Z,1445
2018-03-04T10:52:45.071Z,1125
2018-03-04T10:53:45.875Z,1029
2018-03-04T10:54:46.610Z,1012
2018-03-04T10:55:47.466Z,1006
2018-03-04T10:56:48.196Z,1012
2018-03-04T10:57:48.945Z,1023
2018-03-04T10:58:49.708Z,1040
2018-03-04T10:59:50.444Z,1057
2018-03-04T11:00:51.218Z,1091
2018-03-04T11:01:51.879Z,1158
2018-03-04T11:02:52.607Z,1220
2018-03-04T11:03:53.361Z,1372
2018-03-04T11:04:54.143Z,1395
2018-03-04T11:05:54.893Z,1372
2018-03-04T11:06:55.677Z,1361
2018-03-04T11:07:56.391Z,1462
2018-03-04T11:08:57.116Z,1614
2018-03-04T11:09:57.878Z,1485
2018-03-04T11:10:58.712Z,1524
2018-03-04T11:11:59.474Z,1434
2018-03-04T11:13:00.206Z,1558
2018-03-04T11:14:00.938Z,1665
2018-03-04T11:15:01.669Z,1327
2018-03-04T11:16:02.461Z,1445
2018-03-04T11:17:03.212Z,1620
2018-03-04T11:18:03.993Z,1850
2018-03-04T11:19:04.737Z,1440
2018-03-04T11:20:05.474Z,1687
2018-03-04T11:21:06.266Z,1411
2018-03-04T11:22:07.101Z,1670
2018-03-04T11:23:07.899Z,1586
2018-03-04T11:24:08.625Z,1389
2018-03-04T11:25:09.359Z,1265
2018-03-04T11:26:10.174Z,1209
2018-03-04T11:27:10.918Z,1451
2018-03-04T11:28:11.655Z,1653
2018-03-04T11:29:12.426Z,1462
2018-03-04T11:30:13.303Z,1524
2018-03-04T11:31:14.038Z,1591
2018-03-04T11:32:14.764Z,1620
2018-03-04T11:33:15.506Z,1698
2018-03-04T11:34:16.290Z,1653
2018-03-04T11:35:17.026Z,1518
2018-03-04T11:36:17.768Z,1445
2018-03-04T11:37:18.618Z,1456
2018-03-04T11:38:19.345Z,1378
2018-03-04T11:39:20.101Z,1366
2018-03-04T11:40:20.813Z,1524
2018-03-04T11:41:21.552Z,1636
2018-03-04T11:42:22.343Z,1631
2018-03-04T11:43:23.136Z,1591
2018-03-04T11:44:23.870Z,1524
2018-03-04T11:45:24.677Z,1355
2018-03-04T11:46:25.420Z,1468
2018-03-04T11:47:26.150Z,1468
2018-03-04T11:48:26.926Z,1530
2018-03-04T11:49:27.672Z,1681
2018-03-04T11:50:28.421Z,1749
2018-03-04T11:51:29.279Z,1670
2018-03-04T11:52:30.067Z,1546
2018-03-04T11:53:30.807Z,1389
2018-03-04T11:54:31.560Z,1215
2018-03-04T11:55:32.357Z,1158
2018-03-04T11:56:33.131Z,1186
2018-03-04T11:57:33.903Z,1265
2018-03-04T11:58:34.641Z,1243
2018-03-04T11:59:36.261Z,1288
2018-03-04T12:00:36.959Z,1411
2018-03-04T12:01:37.690Z,1395
2018-03-04T12:02:38.424Z,1378
2018-03-04T12:03:39.172Z,1231
2018-03-04T12:04:40.048Z,1130
2018-03-04T12:05:40.802Z,950
2018-03-04T12:06:41.523Z,1102
2018-03-04T12:07:42.273Z,1321
2018-03-04T12:08:42.990Z,1316
2018-03-04T12:09:43.755Z,1456
2018-03-04T12:10:44.473Z,1468
2018-03-04T12:11:45.295Z,1395
2018-03-04T12:12:46.068Z,1260
2018-03-04T12:13:46.788Z,1338
2018-03-04T12:14:47.526Z,1271
2018-03-04T12:15:48.265Z,1209
2018-03-04T12:16:49.000Z,1119
2018-03-04T12:17:49.790Z,1125
2018-03-04T12:18:50.530Z,1456
2018-03-04T12:19:51.351Z,1423
2018-03-04T12:20:52.073Z,1231
2018-03-04T12:21:52.838Z,1237
2018-03-04T12:22:53.636Z,1603
2018-03-04T12:23:54.491Z,1541
2018-03-04T12:24:55.274Z,1597
2018-03-04T12:25:56.065Z,1586
2018-03-04T12:26:56.882Z,1485
2018-03-04T12:27:57.610Z,1350
2018-03-04T12:28:58.376Z,1423
2018-03-04T12:29:59.185Z,1451
2018-03-04T12:31:00.057Z,1524
2018-03-04T12:32:00.866Z,1428
2018-03-04T12:33:01.686Z,1321
2018-03-04T12:34:02.502Z,1479
2018-03-04T12:35:03.333Z,1282
2018-03-04T12:36:04.199Z,1276
2018-03-04T12:37:05.008Z,1372
2018-03-04T12:38:05.791Z,1417
2018-03-04T12:39:06.566Z,1440
2018-03-04T12:40:07.304Z,1411
2018-03-04T12:41:08.152Z,1423
2018-03-04T12:42:09.004Z,1411
2018-03-04T12:43:09.743Z,1473
2018-03-04T12:44:10.487Z,1501
2018-03-04T12:45:11.284Z,1507
2018-03-04T12:46:12.121Z,1563
2018-03-04T12:47:12.845Z,1636
2018-03-04T12:48:13.586Z,1586
2018-03-04T12:49:14.434Z,1575
2018-03-04T12:50:15.252Z,1614
2018-03-04T12:51:16.022Z,1625
2018-03-04T12:52:16.805Z,1659
2018-03-04T12:53:17.595Z,1648
2018-03-04T12:54:18.411Z,1586
2018-03-04T12:55:19.097Z,1535
2018-03-04T12:56:19.894Z,1513
2018-03-04T12:57:20.633Z,1513
2018-03-04T12:58:21.369Z,1462
2018-03-04T12:59:22.084Z,1361
2018-03-04T13:00:22.824Z,1406
2018-03-04T13:01:23.626Z,1445
2018-03-04T13:02:24.425Z,1327
2018-03-04T13:03:25.175Z,1293
2018-03-04T13:04:25.962Z,1198
2018-03-04T13:05:26.702Z,1198
2018-03-04T13:06:27.489Z,1198
2018-03-04T13:07:28.232Z,1181
2018-03-04T13:08:28.973Z,1175
2018-03-04T13:09:29.702Z,1130
2018-03-04T13:10:30.445Z,1108
2018-03-04T13:11:31.179Z,1029
2018-03-04T13:12:31.928Z,1006
2018-03-04T13:13:32.665Z,1051
2018-03-04T13:14:33.405Z,933
2018-03-04T13:15:34.197Z,916
2018-03-04T13:16:35.011Z,967
2018-03-04T13:17:35.784Z,928
2018-03-04T13:18:36.513Z,1035
2018-03-04T13:19:37.262Z,1018
2018-03-04T13:20:38.095Z,990
2018-03-04T13:21:38.954Z,995
2018-03-04T13:22:39.754Z,1006
2018-03-04T13:23:40.483Z,945
2018-03-04T13:24:41.223Z,832
2018-03-04T13:25:41.947Z,866
2018-03-04T13:26:42.753Z,945
2018-03-04T13:27:43.492Z,939
2018-03-04T13:28:44.234Z,905
2018-03-04T13:29:44.957Z,855
2018-03-04T13:30:45.681Z,821
2018-03-04T13:31:46.414Z,978
2018-03-04T13:32:47.230Z,945
2018-03-04T13:33:47.958Z,838
2018-03-04T13:34:48.765Z,793
2018-03-04T13:35:49.572Z,787
2018-03-04T13:36:50.389Z,832
2018-03-04T13:37:51.123Z,804
2018-03-04T13:38:51.913Z,641
2018-03-04T13:39:52.687Z,607
2018-03-04T13:40:53.421Z,630
2018-03-04T13:41:55.319Z,658
2018-03-04T13:42:57.329Z,804
2018-03-04T13:43:58.611Z,888
2018-03-04T13:44:59.979Z,973
2018-03-04T13:46:00.998Z,973
2018-03-04T13:47:01.665Z,950
2018-03-04T13:48:02.392Z,905
2018-03-04T13:49:03.264Z,742
2018-03-04T13:50:03.988Z,607
2018-03-04T13:51:04.715Z,641
2018-03-04T13:52:05.469Z,708
2018-03-04T13:53:06.254Z,748
2018-03-04T13:54:06.993Z,697
2018-03-04T13:55:07.703Z,669
2018-03-04T13:56:08.435Z,630
2018-03-04T13:57:09.176Z,669
2018-03-04T13:58:09.964Z,691
2018-03-04T13:59:10.702Z,641
2018-03-04T14:00:11.519Z,534
2018-03-04T14:01:12.288Z,540
2018-03-04T14:02:13.032Z,652
2018-03-04T14:03:13.780Z,770
2018-03-04T14:04:14.558Z,804
2018-03-04T14:05:15.282Z,753
2018-03-04T14:06:16.028Z,703
2018-03-04T14:07:16.753Z,663
2018-03-04T14:08:17.489Z,686
2018-03-04T14:09:18.282Z,753
2018-03-04T14:10:19.021Z,781
2018-03-04T14:11:19.753Z,821
2018-03-04T14:12:20.493Z,826
2018-03-04T14:13:21.303Z,720
2018-03-04T14:14:22.044Z,793
2018-03-04T14:15:22.865Z,691
2018-03-04T14:16:23.751Z,601
2018-03-04T14:17:24.487Z,658
2018-03-04T14:18:25.227Z,697
2018-03-04T14:19:26.011Z,691